sensor_id;sensor_type;location;lat;lon;timestamp;temperature;humidity
12655;DHT22;6392;44.644;11.448;2023-04-03T00:00:35;10.10;99.90
12655;DHT22;6392;44.644;11.448;2023-04-03T00:03:02;10.10;99.90
12655;DHT22;6392;44.644;11.448;2023-04-03T00:05:29;10.10;99.90
12655;DHT22;6392;44.644;11.448;2023-04-03T00:07:56;10.10;99.90
12655;DHT22;6392;44.644;11.448;2023-04-03T00:10:22;10.00;99.90
12655;DHT22;6392;44.644;11.448;2023-04-03T00:12:49;10.00;99.90
12655;DHT22;6392;44.644;11.448;2023-04-03T00:15:16;9.90;99.90
12655;DHT22;6392;44.644;11.448;2023-04-03T00:17:44;9.80;99.90
12655;DHT22;6392;44.644;11.448;2023-04-03T00:20:12;9.80;99.90
12655;DHT22;6392;44.644;11.448;2023-04-03T00:22:39;9.70;99.90
12655;DHT22;6392;44.644;11.448;2023-04-03T00:25:06;9.70;99.90
12655;DHT22;6392;44.644;11.448;2023-04-03T00:27:33;9.60;99.90
12655;DHT22;6392;44.644;11.448;2023-04-03T00:29:59;9.60;99.90
12655;DHT22;6392;44.644;11.448;2023-04-03T00:32:26;9.60;99.90
12655;DHT22;6392;44.644;11.448;2023-04-03T00:34:54;9.70;99.90
12655;DHT22;6392;44.644;11.448;2023-04-03T00:37:21;9.80;99.90
12655;DHT22;6392;44.644;11.448;2023-04-03T00:39:48;9.90;99.90
12655;DHT22;6392;44.644;11.448;2023-04-03T00:42:15;9.90;99.90
12655;DHT22;6392;44.644;11.448;2023-04-03T00:47:27;10.00;99.90
12655;DHT22;6392;44.644;11.448;2023-04-03T00:49:56;10.00;99.90
12655;DHT22;6392;44.644;11.448;2023-04-03T00:52:25;10.00;99.90
12655;DHT22;6392;44.644;11.448;2023-04-03T00:54:52;10.00;99.90
12655;DHT22;6392;44.644;11.448;2023-04-03T00:57:21;10.00;99.90
12655;DHT22;6392;44.644;11.448;2023-04-03T00:59:48;10.00;99.90
12655;DHT22;6392;44.644;11.448;2023-04-03T01:02:17;10.00;99.90
12655;DHT22;6392;44.644;11.448;2023-04-03T01:04:44;10.00;99.90
12655;DHT22;6392;44.644;11.448;2023-04-03T01:07:14;10.00;99.90
12655;DHT22;6392;44.644;11.448;2023-04-03T01:09:42;10.10;99.90
12655;DHT22;6392;44.644;11.448;2023-04-03T01:12:13;10.10;99.90
12655;DHT22;6392;44.644;11.448;2023-04-03T01:14:41;10.00;99.90
12655;DHT22;6392;44.644;11.448;2023-04-03T01:19:51;10.00;99.90
12655;DHT22;6392;44.644;11.448;2023-04-03T01:22:23;10.00;99.90
12655;DHT22;6392;44.644;11.448;2023-04-03T01:24:52;10.00;99.90
12655;DHT22;6392;44.644;11.448;2023-04-03T01:27:19;10.00;99.90
12655;DHT22;6392;44.644;11.448;2023-04-03T01:29:46;10.00;99.90
12655;DHT22;6392;44.644;11.448;2023-04-03T01:32:14;10.00;99.90
12655;DHT22;6392;44.644;11.448;2023-04-03T01:34:41;10.00;99.90
12655;DHT22;6392;44.644;11.448;2023-04-03T01:37:08;10.00;99.90
12655;DHT22;6392;44.644;11.448;2023-04-03T01:39:34;10.00;99.90
12655;DHT22;6392;44.644;11.448;2023-04-03T01:42:01;10.00;99.90
12655;DHT22;6392;44.644;11.448;2023-04-03T01:44:29;10.10;99.90
12655;DHT22;6392;44.644;11.448;2023-04-03T01:46:55;10.00;99.90
12655;DHT22;6392;44.644;11.448;2023-04-03T01:49:24;10.00;99.90
12655;DHT22;6392;44.644;11.448;2023-04-03T01:51:50;10.00;99.90
12655;DHT22;6392;44.644;11.448;2023-04-03T01:54:17;10.10;99.90
12655;DHT22;6392;44.644;11.448;2023-04-03T01:56:44;10.10;99.90
12655;DHT22;6392;44.644;11.448;2023-04-03T01:59:11;10.00;99.90
12655;DHT22;6392;44.644;11.448;2023-04-03T02:01:37;9.90;99.90
12655;DHT22;6392;44.644;11.448;2023-04-03T02:04:04;10.00;99.90
12655;DHT22;6392;44.644;11.448;2023-04-03T02:06:33;9.90;99.90
12655;DHT22;6392;44.644;11.448;2023-04-03T02:09:00;9.80;99.90
12655;DHT22;6392;44.644;11.448;2023-04-03T02:11:27;9.70;99.90
12655;DHT22;6392;44.644;11.448;2023-04-03T02:13:53;9.70;99.90
12655;DHT22;6392;44.644;11.448;2023-04-03T02:16:20;9.70;99.90
12655;DHT22;6392;44.644;11.448;2023-04-03T02:18:47;9.70;99.90
12655;DHT22;6392;44.644;11.448;2023-04-03T02:21:14;9.70;99.90
12655;DHT22;6392;44.644;11.448;2023-04-03T02:23:42;9.70;99.90
12655;DHT22;6392;44.644;11.448;2023-04-03T02:26:10;9.60;99.90
12655;DHT22;6392;44.644;11.448;2023-04-03T02:28:37;9.60;99.90
12655;DHT22;6392;44.644;11.448;2023-04-03T02:31:04;9.60;99.90
12655;DHT22;6392;44.644;11.448;2023-04-03T02:33:31;9.60;99.90
12655;DHT22;6392;44.644;11.448;2023-04-03T02:35:58;9.60;99.90
12655;DHT22;6392;44.644;11.448;2023-04-03T02:38:25;9.60;99.90
12655;DHT22;6392;44.644;11.448;2023-04-03T02:40:53;9.60;99.90
12655;DHT22;6392;44.644;11.448;2023-04-03T02:43:25;9.60;99.90
12655;DHT22;6392;44.644;11.448;2023-04-03T02:45:52;9.60;99.90
12655;DHT22;6392;44.644;11.448;2023-04-03T02:48:19;9.60;99.90
12655;DHT22;6392;44.644;11.448;2023-04-03T02:50:46;9.50;99.90
12655;DHT22;6392;44.644;11.448;2023-04-03T02:53:12;9.50;99.90
12655;DHT22;6392;44.644;11.448;2023-04-03T02:55:39;9.50;99.90
12655;DHT22;6392;44.644;11.448;2023-04-03T02:58:07;9.50;99.90
12655;DHT22;6392;44.644;11.448;2023-04-03T03:00:34;9.50;99.90
12655;DHT22;6392;44.644;11.448;2023-04-03T03:03:01;9.50;99.90
12655;DHT22;6392;44.644;11.448;2023-04-03T03:05:28;9.40;99.90
12655;DHT22;6392;44.644;11.448;2023-04-03T03:07:54;9.40;99.90
12655;DHT22;6392;44.644;11.448;2023-04-03T03:10:21;9.40;99.90
12655;DHT22;6392;44.644;11.448;2023-04-03T03:12:48;9.30;99.90
12655;DHT22;6392;44.644;11.448;2023-04-03T03:15:17;9.30;99.90
12655;DHT22;6392;44.644;11.448;2023-04-03T03:17:44;9.30;99.90
12655;DHT22;6392;44.644;11.448;2023-04-03T03:20:12;9.30;99.90
12655;DHT22;6392;44.644;11.448;2023-04-03T03:22:39;9.30;99.90
12655;DHT22;6392;44.644;11.448;2023-04-03T03:25:06;9.30;99.90
12655;DHT22;6392;44.644;11.448;2023-04-03T03:27:33;9.30;99.90
12655;DHT22;6392;44.644;11.448;2023-04-03T03:30:00;9.30;99.90
12655;DHT22;6392;44.644;11.448;2023-04-03T03:32:28;9.40;99.90
12655;DHT22;6392;44.644;11.448;2023-04-03T03:34:55;9.40;99.90
12655;DHT22;6392;44.644;11.448;2023-04-03T03:37:21;9.40;99.90
12655;DHT22;6392;44.644;11.448;2023-04-03T03:39:48;9.40;99.90
12655;DHT22;6392;44.644;11.448;2023-04-03T03:42:15;9.50;99.90
12655;DHT22;6392;44.644;11.448;2023-04-03T03:44:42;9.50;99.90
12655;DHT22;6392;44.644;11.448;2023-04-03T03:47:09;9.50;99.90
12655;DHT22;6392;44.644;11.448;2023-04-03T03:49:37;9.50;99.90
12655;DHT22;6392;44.644;11.448;2023-04-03T03:52:04;9.40;99.90
12655;DHT22;6392;44.644;11.448;2023-04-03T03:54:31;9.40;99.90
12655;DHT22;6392;44.644;11.448;2023-04-03T03:56:58;9.40;99.90
12655;DHT22;6392;44.644;11.448;2023-04-03T03:59:24;9.50;99.90
12655;DHT22;6392;44.644;11.448;2023-04-03T04:01:51;9.50;99.90
12655;DHT22;6392;44.644;11.448;2023-04-03T04:04:18;9.60;99.90
12655;DHT22;6392;44.644;11.448;2023-04-03T04:06:46;9.50;99.90
12655;DHT22;6392;44.644;11.448;2023-04-03T04:09:13;9.50;99.90
12655;DHT22;6392;44.644;11.448;2023-04-03T04:11:40;9.50;99.90
12655;DHT22;6392;44.644;11.448;2023-04-03T04:14:07;9.40;99.90
12655;DHT22;6392;44.644;11.448;2023-04-03T04:16:35;9.40;99.90
12655;DHT22;6392;44.644;11.448;2023-04-03T04:19:02;9.40;99.90
12655;DHT22;6392;44.644;11.448;2023-04-03T04:21:29;9.40;99.90
12655;DHT22;6392;44.644;11.448;2023-04-03T04:23:57;9.40;99.90
12655;DHT22;6392;44.644;11.448;2023-04-03T04:26:24;9.40;99.90
12655;DHT22;6392;44.644;11.448;2023-04-03T04:28:51;9.40;99.90
12655;DHT22;6392;44.644;11.448;2023-04-03T04:31:18;9.40;99.90
12655;DHT22;6392;44.644;11.448;2023-04-03T04:33:44;9.40;99.90
12655;DHT22;6392;44.644;11.448;2023-04-03T04:36:11;9.40;99.90
12655;DHT22;6392;44.644;11.448;2023-04-03T04:38:40;9.40;99.90
12655;DHT22;6392;44.644;11.448;2023-04-03T04:41:08;9.40;99.90
12655;DHT22;6392;44.644;11.448;2023-04-03T04:43:35;9.40;99.90
12655;DHT22;6392;44.644;11.448;2023-04-03T04:46:02;9.50;99.90
12655;DHT22;6392;44.644;11.448;2023-04-03T04:48:29;9.50;99.90
12655;DHT22;6392;44.644;11.448;2023-04-03T04:50:56;9.50;99.90
12655;DHT22;6392;44.644;11.448;2023-04-03T04:53:23;9.40;99.90
12655;DHT22;6392;44.644;11.448;2023-04-03T04:55:50;9.40;99.90
12655;DHT22;6392;44.644;11.448;2023-04-03T04:58:18;9.30;99.90
12655;DHT22;6392;44.644;11.448;2023-04-03T05:00:45;9.30;99.90
12655;DHT22;6392;44.644;11.448;2023-04-03T05:03:12;9.30;99.90
12655;DHT22;6392;44.644;11.448;2023-04-03T05:05:39;9.30;99.90
12655;DHT22;6392;44.644;11.448;2023-04-03T05:08:06;9.30;99.90
12655;DHT22;6392;44.644;11.448;2023-04-03T05:10:33;9.30;99.90
12655;DHT22;6392;44.644;11.448;2023-04-03T05:13:00;9.30;99.90
12655;DHT22;6392;44.644;11.448;2023-04-03T05:15:28;9.30;99.90
12655;DHT22;6392;44.644;11.448;2023-04-03T05:17:55;9.30;99.90
12655;DHT22;6392;44.644;11.448;2023-04-03T05:20:22;9.20;99.90
12655;DHT22;6392;44.644;11.448;2023-04-03T05:22:49;9.20;99.90
12655;DHT22;6392;44.644;11.448;2023-04-03T05:25:16;9.10;99.90
12655;DHT22;6392;44.644;11.448;2023-04-03T05:27:42;9.10;99.90
12655;DHT22;6392;44.644;11.448;2023-04-03T05:30:10;9.10;99.90
12655;DHT22;6392;44.644;11.448;2023-04-03T05:32:38;9.20;99.90
12655;DHT22;6392;44.644;11.448;2023-04-03T05:35:05;9.20;99.90
12655;DHT22;6392;44.644;11.448;2023-04-03T05:37:32;9.20;99.90
12655;DHT22;6392;44.644;11.448;2023-04-03T05:39:59;9.30;99.90
12655;DHT22;6392;44.644;11.448;2023-04-03T05:42:26;9.30;99.90
12655;DHT22;6392;44.644;11.448;2023-04-03T05:44:53;9.30;99.90
12655;DHT22;6392;44.644;11.448;2023-04-03T05:47:19;9.30;99.90
12655;DHT22;6392;44.644;11.448;2023-04-03T05:49:48;9.30;99.90
12655;DHT22;6392;44.644;11.448;2023-04-03T05:52:17;9.30;99.90
12655;DHT22;6392;44.644;11.448;2023-04-03T05:54:46;9.30;99.90
12655;DHT22;6392;44.644;11.448;2023-04-03T05:57:13;9.30;99.90
12655;DHT22;6392;44.644;11.448;2023-04-03T05:59:41;9.30;99.90
12655;DHT22;6392;44.644;11.448;2023-04-03T06:02:09;9.30;99.90
12655;DHT22;6392;44.644;11.448;2023-04-03T06:04:36;9.30;99.90
12655;DHT22;6392;44.644;11.448;2023-04-03T06:07:04;9.40;99.90
12655;DHT22;6392;44.644;11.448;2023-04-03T06:09:32;9.30;99.90
12655;DHT22;6392;44.644;11.448;2023-04-03T06:11:59;9.30;99.90
12655;DHT22;6392;44.644;11.448;2023-04-03T06:14:26;9.40;99.90
12655;DHT22;6392;44.644;11.448;2023-04-03T06:16:53;9.40;99.90
12655;DHT22;6392;44.644;11.448;2023-04-03T06:19:20;9.40;99.90
12655;DHT22;6392;44.644;11.448;2023-04-03T06:21:47;9.50;99.90
12655;DHT22;6392;44.644;11.448;2023-04-03T06:24:15;9.50;99.90
12655;DHT22;6392;44.644;11.448;2023-04-03T06:26:42;9.60;99.90
12655;DHT22;6392;44.644;11.448;2023-04-03T06:29:09;9.60;99.90
12655;DHT22;6392;44.644;11.448;2023-04-03T06:31:36;9.70;99.90
12655;DHT22;6392;44.644;11.448;2023-04-03T06:34:04;9.70;99.90
12655;DHT22;6392;44.644;11.448;2023-04-03T06:36:31;9.70;99.90
12655;DHT22;6392;44.644;11.448;2023-04-03T06:38:58;9.80;99.90
12655;DHT22;6392;44.644;11.448;2023-04-03T06:41:26;9.80;99.90
12655;DHT22;6392;44.644;11.448;2023-04-03T06:43:53;9.90;99.90
12655;DHT22;6392;44.644;11.448;2023-04-03T06:46:21;10.00;99.90
12655;DHT22;6392;44.644;11.448;2023-04-03T06:48:48;10.00;99.90
12655;DHT22;6392;44.644;11.448;2023-04-03T06:51:17;10.10;99.90
12655;DHT22;6392;44.644;11.448;2023-04-03T06:53:44;10.20;99.90
12655;DHT22;6392;44.644;11.448;2023-04-03T06:56:11;10.30;99.90
12655;DHT22;6392;44.644;11.448;2023-04-03T06:58:39;10.30;99.90
12655;DHT22;6392;44.644;11.448;2023-04-03T07:01:07;10.40;99.90
12655;DHT22;6392;44.644;11.448;2023-04-03T07:03:34;10.50;99.90
12655;DHT22;6392;44.644;11.448;2023-04-03T07:06:02;10.60;99.90
12655;DHT22;6392;44.644;11.448;2023-04-03T07:08:29;10.60;99.90
12655;DHT22;6392;44.644;11.448;2023-04-03T07:10:55;10.70;99.90
12655;DHT22;6392;44.644;11.448;2023-04-03T07:13:22;10.80;99.90
12655;DHT22;6392;44.644;11.448;2023-04-03T07:15:50;10.80;99.90
12655;DHT22;6392;44.644;11.448;2023-04-03T07:18:18;10.90;99.90
12655;DHT22;6392;44.644;11.448;2023-04-03T07:20:45;10.90;99.90
12655;DHT22;6392;44.644;11.448;2023-04-03T07:23:11;11.00;99.90
12655;DHT22;6392;44.644;11.448;2023-04-03T07:25:41;11.10;99.90
12655;DHT22;6392;44.644;11.448;2023-04-03T07:28:08;11.10;99.90
12655;DHT22;6392;44.644;11.448;2023-04-03T07:30:41;11.20;99.90
12655;DHT22;6392;44.644;11.448;2023-04-03T07:33:09;11.30;99.90
12655;DHT22;6392;44.644;11.448;2023-04-03T07:35:37;11.40;99.90
12655;DHT22;6392;44.644;11.448;2023-04-03T07:38:03;11.40;99.90
12655;DHT22;6392;44.644;11.448;2023-04-03T07:40:30;11.40;99.90
12655;DHT22;6392;44.644;11.448;2023-04-03T07:42:57;11.50;99.90
12655;DHT22;6392;44.644;11.448;2023-04-03T07:45:25;11.60;99.90
12655;DHT22;6392;44.644;11.448;2023-04-03T07:47:52;11.60;99.90
12655;DHT22;6392;44.644;11.448;2023-04-03T07:50:20;11.70;99.90
12655;DHT22;6392;44.644;11.448;2023-04-03T07:52:47;11.70;99.90
12655;DHT22;6392;44.644;11.448;2023-04-03T07:55:16;11.80;99.90
12655;DHT22;6392;44.644;11.448;2023-04-03T07:57:43;11.80;99.90
12655;DHT22;6392;44.644;11.448;2023-04-03T08:00:10;11.90;99.90
12655;DHT22;6392;44.644;11.448;2023-04-03T08:02:37;11.90;99.90
12655;DHT22;6392;44.644;11.448;2023-04-03T08:05:04;12.00;99.90
12655;DHT22;6392;44.644;11.448;2023-04-03T08:07:32;12.00;99.90
12655;DHT22;6392;44.644;11.448;2023-04-03T08:09:59;12.00;99.90
12655;DHT22;6392;44.644;11.448;2023-04-03T08:12:28;12.00;99.90
12655;DHT22;6392;44.644;11.448;2023-04-03T08:14:55;12.00;99.90
12655;DHT22;6392;44.644;11.448;2023-04-03T08:17:22;12.10;99.90
12655;DHT22;6392;44.644;11.448;2023-04-03T08:19:48;12.10;99.90
12655;DHT22;6392;44.644;11.448;2023-04-03T08:22:15;12.20;99.90
12655;DHT22;6392;44.644;11.448;2023-04-03T08:24:44;12.20;99.90
12655;DHT22;6392;44.644;11.448;2023-04-03T08:27:11;12.20;99.90
12655;DHT22;6392;44.644;11.448;2023-04-03T08:29:37;12.30;99.90
12655;DHT22;6392;44.644;11.448;2023-04-03T08:32:05;12.30;99.90
12655;DHT22;6392;44.644;11.448;2023-04-03T08:34:32;12.40;99.90
12655;DHT22;6392;44.644;11.448;2023-04-03T08:37:00;12.50;99.90
12655;DHT22;6392;44.644;11.448;2023-04-03T08:39:27;12.60;99.90
12655;DHT22;6392;44.644;11.448;2023-04-03T08:41:55;12.70;99.90
12655;DHT22;6392;44.644;11.448;2023-04-03T08:44:24;12.70;99.90
12655;DHT22;6392;44.644;11.448;2023-04-03T08:46:56;12.70;99.90
12655;DHT22;6392;44.644;11.448;2023-04-03T08:49:27;12.70;99.90
12655;DHT22;6392;44.644;11.448;2023-04-03T08:51:54;12.60;99.90
12655;DHT22;6392;44.644;11.448;2023-04-03T08:54:28;12.60;99.90
12655;DHT22;6392;44.644;11.448;2023-04-03T08:56:57;12.60;99.90
12655;DHT22;6392;44.644;11.448;2023-04-03T08:59:26;12.60;99.90
12655;DHT22;6392;44.644;11.448;2023-04-03T09:01:56;12.60;99.90
12655;DHT22;6392;44.644;11.448;2023-04-03T09:04:24;12.70;99.90
12655;DHT22;6392;44.644;11.448;2023-04-03T09:06:52;12.80;99.90
12655;DHT22;6392;44.644;11.448;2023-04-03T09:09:24;13.00;99.90
12655;DHT22;6392;44.644;11.448;2023-04-03T09:12:00;13.10;99.90
12655;DHT22;6392;44.644;11.448;2023-04-03T09:14:36;13.10;99.90
12655;DHT22;6392;44.644;11.448;2023-04-03T09:17:08;13.10;99.90
12655;DHT22;6392;44.644;11.448;2023-04-03T09:19:37;13.00;99.90
12655;DHT22;6392;44.644;11.448;2023-04-03T09:22:11;13.10;99.90
12655;DHT22;6392;44.644;11.448;2023-04-03T09:24:40;13.10;99.90
12655;DHT22;6392;44.644;11.448;2023-04-03T09:27:09;13.10;99.90
12655;DHT22;6392;44.644;11.448;2023-04-03T09:29:37;13.20;99.90
12655;DHT22;6392;44.644;11.448;2023-04-03T09:32:12;13.20;99.90
12655;DHT22;6392;44.644;11.448;2023-04-03T09:34:44;13.30;99.90
12655;DHT22;6392;44.644;11.448;2023-04-03T09:37:11;13.40;99.90
12655;DHT22;6392;44.644;11.448;2023-04-03T09:39:58;13.40;99.90
12655;DHT22;6392;44.644;11.448;2023-04-03T09:42:28;13.30;99.90
12655;DHT22;6392;44.644;11.448;2023-04-03T09:44:57;13.40;99.90
12655;DHT22;6392;44.644;11.448;2023-04-03T09:47:25;13.30;99.90
12655;DHT22;6392;44.644;11.448;2023-04-03T09:50:08;13.30;99.90
12655;DHT22;6392;44.644;11.448;2023-04-03T09:52:35;13.30;99.90
12655;DHT22;6392;44.644;11.448;2023-04-03T09:55:05;13.20;99.90
12655;DHT22;6392;44.644;11.448;2023-04-03T09:57:34;13.20;99.90
12655;DHT22;6392;44.644;11.448;2023-04-03T10:00:01;13.20;99.90
12655;DHT22;6392;44.644;11.448;2023-04-03T10:02:34;13.20;99.90
12655;DHT22;6392;44.644;11.448;2023-04-03T10:05:02;13.20;99.90
12655;DHT22;6392;44.644;11.448;2023-04-03T10:07:31;13.10;99.90
12655;DHT22;6392;44.644;11.448;2023-04-03T10:10:00;13.20;99.90
12655;DHT22;6392;44.644;11.448;2023-04-03T10:12:27;13.20;99.90
12655;DHT22;6392;44.644;11.448;2023-04-03T10:14:55;13.20;99.90
12655;DHT22;6392;44.644;11.448;2023-04-03T10:17:25;13.30;99.90
12655;DHT22;6392;44.644;11.448;2023-04-03T10:19:53;13.40;99.90
12655;DHT22;6392;44.644;11.448;2023-04-03T10:22:25;13.50;99.90
12655;DHT22;6392;44.644;11.448;2023-04-03T10:24:58;13.60;99.90
12655;DHT22;6392;44.644;11.448;2023-04-03T10:27:32;13.60;99.90
12655;DHT22;6392;44.644;11.448;2023-04-03T10:30:07;13.70;99.90
12655;DHT22;6392;44.644;11.448;2023-04-03T10:32:45;13.80;99.90
12655;DHT22;6392;44.644;11.448;2023-04-03T10:35:16;13.80;99.90
12655;DHT22;6392;44.644;11.448;2023-04-03T10:37:48;13.80;99.90
12655;DHT22;6392;44.644;11.448;2023-04-03T10:40:22;13.70;99.90
12655;DHT22;6392;44.644;11.448;2023-04-03T10:42:52;13.70;99.90
12655;DHT22;6392;44.644;11.448;2023-04-03T10:45:24;13.70;99.90
12655;DHT22;6392;44.644;11.448;2023-04-03T10:47:55;13.70;99.90
12655;DHT22;6392;44.644;11.448;2023-04-03T10:50:27;13.60;99.90
12655;DHT22;6392;44.644;11.448;2023-04-03T10:52:57;13.70;99.90
12655;DHT22;6392;44.644;11.448;2023-04-03T10:55:30;13.80;99.90
12655;DHT22;6392;44.644;11.448;2023-04-03T10:57:59;13.90;99.90
12655;DHT22;6392;44.644;11.448;2023-04-03T11:00:34;14.00;99.90
12655;DHT22;6392;44.644;11.448;2023-04-03T11:03:03;14.00;99.90
12655;DHT22;6392;44.644;11.448;2023-04-03T11:05:34;14.00;99.90
12655;DHT22;6392;44.644;11.448;2023-04-03T11:08:04;14.10;99.90
12655;DHT22;6392;44.644;11.448;2023-04-03T11:10:35;14.10;99.90
12655;DHT22;6392;44.644;11.448;2023-04-03T11:13:06;14.20;99.90
12655;DHT22;6392;44.644;11.448;2023-04-03T11:15:39;14.30;99.90
12655;DHT22;6392;44.644;11.448;2023-04-03T11:18:08;14.30;99.90
12655;DHT22;6392;44.644;11.448;2023-04-03T11:20:36;14.30;99.90
12655;DHT22;6392;44.644;11.448;2023-04-03T11:23:04;14.40;99.90
12655;DHT22;6392;44.644;11.448;2023-04-03T11:25:33;14.40;99.90
12655;DHT22;6392;44.644;11.448;2023-04-03T11:28:02;14.50;99.90
12655;DHT22;6392;44.644;11.448;2023-04-03T11:30:30;14.60;99.90
12655;DHT22;6392;44.644;11.448;2023-04-03T11:33:04;14.70;99.90
12655;DHT22;6392;44.644;11.448;2023-04-03T11:35:32;14.80;99.90
12655;DHT22;6392;44.644;11.448;2023-04-03T11:38:00;14.80;99.90
12655;DHT22;6392;44.644;11.448;2023-04-03T11:40:31;14.90;99.90
12655;DHT22;6392;44.644;11.448;2023-04-03T11:43:03;15.00;99.90
12655;DHT22;6392;44.644;11.448;2023-04-03T11:45:37;15.00;99.90
12655;DHT22;6392;44.644;11.448;2023-04-03T11:48:06;15.10;99.90
12655;DHT22;6392;44.644;11.448;2023-04-03T11:50:41;15.10;99.90
12655;DHT22;6392;44.644;11.448;2023-04-03T11:53:30;15.10;99.90
12655;DHT22;6392;44.644;11.448;2023-04-03T11:55:58;15.10;99.90
12655;DHT22;6392;44.644;11.448;2023-04-03T11:58:26;15.10;99.90
12655;DHT22;6392;44.644;11.448;2023-04-03T12:01:00;15.10;99.90
12655;DHT22;6392;44.644;11.448;2023-04-03T12:03:34;15.20;99.90
12655;DHT22;6392;44.644;11.448;2023-04-03T12:09:04;15.20;99.90
12655;DHT22;6392;44.644;11.448;2023-04-03T12:11:48;15.20;99.90
12655;DHT22;6392;44.644;11.448;2023-04-03T12:14:15;15.10;99.90
12655;DHT22;6392;44.644;11.448;2023-04-03T12:16:43;15.10;99.90
12655;DHT22;6392;44.644;11.448;2023-04-03T12:22:16;15.20;99.90
12655;DHT22;6392;44.644;11.448;2023-04-03T12:24:46;15.40;99.90
12655;DHT22;6392;44.644;11.448;2023-04-03T12:27:21;15.50;99.90
12655;DHT22;6392;44.644;11.448;2023-04-03T12:29:51;15.70;99.90
12655;DHT22;6392;44.644;11.448;2023-04-03T12:32:22;15.80;99.90
12655;DHT22;6392;44.644;11.448;2023-04-03T12:34:55;15.90;99.90
12655;DHT22;6392;44.644;11.448;2023-04-03T12:37:34;16.00;99.90
12655;DHT22;6392;44.644;11.448;2023-04-03T12:40:09;16.10;99.90
12655;DHT22;6392;44.644;11.448;2023-04-03T12:42:55;16.30;99.90
12655;DHT22;6392;44.644;11.448;2023-04-03T12:45:25;16.40;99.90
12655;DHT22;6392;44.644;11.448;2023-04-03T12:47:52;16.50;99.90
12655;DHT22;6392;44.644;11.448;2023-04-03T12:50:21;16.50;99.90
12655;DHT22;6392;44.644;11.448;2023-04-03T12:52:52;16.50;99.90
12655;DHT22;6392;44.644;11.448;2023-04-03T12:55:21;16.50;99.90
12655;DHT22;6392;44.644;11.448;2023-04-03T12:57:48;16.50;99.90
12655;DHT22;6392;44.644;11.448;2023-04-03T13:00:25;16.60;99.90
12655;DHT22;6392;44.644;11.448;2023-04-03T13:02:53;16.70;99.90
12655;DHT22;6392;44.644;11.448;2023-04-03T13:05:20;16.70;99.90
12655;DHT22;6392;44.644;11.448;2023-04-03T13:07:48;16.70;99.90
12655;DHT22;6392;44.644;11.448;2023-04-03T13:10:17;16.70;99.90
12655;DHT22;6392;44.644;11.448;2023-04-03T13:12:45;16.70;99.90
12655;DHT22;6392;44.644;11.448;2023-04-03T13:15:13;16.70;99.90
12655;DHT22;6392;44.644;11.448;2023-04-03T13:17:41;16.80;99.90
12655;DHT22;6392;44.644;11.448;2023-04-03T13:20:12;16.80;99.90
12655;DHT22;6392;44.644;11.448;2023-04-03T13:22:40;16.70;99.90
12655;DHT22;6392;44.644;11.448;2023-04-03T13:25:13;16.80;99.90
12655;DHT22;6392;44.644;11.448;2023-04-03T13:27:42;16.90;99.90
12655;DHT22;6392;44.644;11.448;2023-04-03T13:30:20;17.00;99.90
12655;DHT22;6392;44.644;11.448;2023-04-03T13:32:47;17.00;99.90
12655;DHT22;6392;44.644;11.448;2023-04-03T13:35:28;17.10;99.90
12655;DHT22;6392;44.644;11.448;2023-04-03T13:37:56;17.20;99.90
12655;DHT22;6392;44.644;11.448;2023-04-03T13:40:23;17.30;99.90
12655;DHT22;6392;44.644;11.448;2023-04-03T13:42:59;17.50;99.90
12655;DHT22;6392;44.644;11.448;2023-04-03T13:45:27;17.60;99.90
12655;DHT22;6392;44.644;11.448;2023-04-03T13:48:06;17.70;99.90
12655;DHT22;6392;44.644;11.448;2023-04-03T13:50:33;17.70;99.90
12655;DHT22;6392;44.644;11.448;2023-04-03T13:53:00;17.70;99.90
12655;DHT22;6392;44.644;11.448;2023-04-03T13:55:29;17.70;99.90
12655;DHT22;6392;44.644;11.448;2023-04-03T13:57:57;17.70;99.90
12655;DHT22;6392;44.644;11.448;2023-04-03T14:00:30;17.70;99.90
12655;DHT22;6392;44.644;11.448;2023-04-03T14:02:58;17.70;99.90
12655;DHT22;6392;44.644;11.448;2023-04-03T14:05:25;17.80;99.90
12655;DHT22;6392;44.644;11.448;2023-04-03T14:07:52;18.00;99.90
12655;DHT22;6392;44.644;11.448;2023-04-03T14:10:19;18.20;99.90
12655;DHT22;6392;44.644;11.448;2023-04-03T14:12:46;18.40;99.90
12655;DHT22;6392;44.644;11.448;2023-04-03T14:15:16;18.50;99.90
12655;DHT22;6392;44.644;11.448;2023-04-03T14:17:45;18.60;99.90
12655;DHT22;6392;44.644;11.448;2023-04-03T14:20:14;18.60;99.90
12655;DHT22;6392;44.644;11.448;2023-04-03T14:22:41;18.60;99.90
12655;DHT22;6392;44.644;11.448;2023-04-03T14:25:08;18.80;99.90
12655;DHT22;6392;44.644;11.448;2023-04-03T14:27:36;18.80;99.90
12655;DHT22;6392;44.644;11.448;2023-04-03T14:30:04;18.90;99.90
12655;DHT22;6392;44.644;11.448;2023-04-03T14:32:33;18.80;99.90
12655;DHT22;6392;44.644;11.448;2023-04-03T14:35:01;18.70;99.90
12655;DHT22;6392;44.644;11.448;2023-04-03T14:37:29;18.60;99.90
12655;DHT22;6392;44.644;11.448;2023-04-03T14:39:56;18.80;99.90
12655;DHT22;6392;44.644;11.448;2023-04-03T14:42:25;19.00;99.90
12655;DHT22;6392;44.644;11.448;2023-04-03T14:44:53;19.10;99.90
12655;DHT22;6392;44.644;11.448;2023-04-03T14:47:20;19.10;99.90
12655;DHT22;6392;44.644;11.448;2023-04-03T14:49:47;19.30;99.90
12655;DHT22;6392;44.644;11.448;2023-04-03T14:52:17;19.50;99.90
12655;DHT22;6392;44.644;11.448;2023-04-03T14:54:44;19.80;99.90
12655;DHT22;6392;44.644;11.448;2023-04-03T14:57:11;20.10;99.90
12655;DHT22;6392;44.644;11.448;2023-04-03T14:59:39;20.30;99.90
12655;DHT22;6392;44.644;11.448;2023-04-03T15:02:11;20.40;99.90
12655;DHT22;6392;44.644;11.448;2023-04-03T15:04:48;20.20;99.90
12655;DHT22;6392;44.644;11.448;2023-04-03T15:07:16;19.90;99.90
12655;DHT22;6392;44.644;11.448;2023-04-03T15:09:43;19.80;99.90
12655;DHT22;6392;44.644;11.448;2023-04-03T15:12:10;19.60;99.90
12655;DHT22;6392;44.644;11.448;2023-04-03T15:14:37;19.60;99.90
12655;DHT22;6392;44.644;11.448;2023-04-03T15:17:04;19.70;99.90
12655;DHT22;6392;44.644;11.448;2023-04-03T15:19:32;20.10;99.90
12655;DHT22;6392;44.644;11.448;2023-04-03T15:22:02;20.20;99.90
12655;DHT22;6392;44.644;11.448;2023-04-03T15:24:30;20.40;99.90
12655;DHT22;6392;44.644;11.448;2023-04-03T15:26:57;20.50;99.90
12655;DHT22;6392;44.644;11.448;2023-04-03T15:29:24;20.70;99.90
12655;DHT22;6392;44.644;11.448;2023-04-03T15:31:51;20.60;99.90
12655;DHT22;6392;44.644;11.448;2023-04-03T15:34:18;20.60;99.90
12655;DHT22;6392;44.644;11.448;2023-04-03T15:36:46;20.80;99.90
12655;DHT22;6392;44.644;11.448;2023-04-03T15:39:13;20.90;99.90
12655;DHT22;6392;44.644;11.448;2023-04-03T15:41:43;20.80;99.90
12655;DHT22;6392;44.644;11.448;2023-04-03T15:44:10;20.80;99.90
12655;DHT22;6392;44.644;11.448;2023-04-03T15:46:37;20.90;99.90
12655;DHT22;6392;44.644;11.448;2023-04-03T15:49:04;21.20;99.90
12655;DHT22;6392;44.644;11.448;2023-04-03T15:51:31;21.70;99.90
12655;DHT22;6392;44.644;11.448;2023-04-03T15:53:58;22.10;99.90